Time;durP1;ratioP1;P1;durP2;ratioP2;P2;SDS_P1;SDS_P2;PMS_P1;PMS_P2;Temp;Humidity;BMP_temperature;BMP_pressure;BME280_temperature;BME280_humidity;BME280_pressure;Samples;Min_cycle;Max_cycle;Signal;HPM_P1;HPM_P2
2022/01/19 00:01:14;;;;;;;14.95;9.27;;;;;;;;;;5040289;28;20702;-79
2022/01/19 00:03:40;;;;;;;10.38;7.57;;;;;;;;;;5042441;28;20189;-79
2022/01/19 00:06:06;;;;;;;14.48;7.75;;;;;;;;;;5043463;28;20208;-78
2022/01/19 00:08:32;;;;;;;11.07;8.30;;;;;;;;;;5038186;28;20576;-78
2022/01/19 00:10:58;;;;;;;13.73;7.65;;;;;;;;;;5042539;28;20185;-78
2022/01/19 00:13:25;;;;;;;9.35;7.30;;;;;;;;;;5042576;28;20177;-79
2022/01/19 00:15:51;;;;;;;10.57;8.00;;;;;;;;;;5042794;28;20186;-79
2022/01/19 00:18:18;;;;;;;10.98;7.55;;;;;;;;;;5043094;28;20190;-79
2022/01/19 00:20:45;;;;;;;9.88;6.93;;;;;;;;;;5043191;28;20182;-79
2022/01/19 00:23:11;;;;;;;10.68;6.88;;;;;;;;;;5042654;28;20189;-79
2022/01/19 00:25:38;;;;;;;10.07;6.47;;;;;;;;;;5042318;28;20178;-79
2022/01/19 00:28:05;;;;;;;8.85;6.22;;;;;;;;;;5042253;28;20206;-79
2022/01/19 00:30:31;;;;;;;11.90;7.55;;;;;;;;;;5044546;28;20184;-79
2022/01/19 00:32:57;;;;;;;11.85;6.75;;;;;;;;;;5042679;28;20209;-79
2022/01/19 00:35:24;;;;;;;10.77;6.50;;;;;;;;;;5043945;28;20186;-79
2022/01/19 00:37:50;;;;;;;12.73;7.00;;;;;;;;;;5043804;28;20189;-79
2022/01/19 00:40:16;;;;;;;10.07;7.55;;;;;;;;;;5044660;28;20192;-79
2022/01/19 00:42:43;;;;;;;11.75;8.23;;;;;;;;;;5042393;28;20174;-79
2022/01/19 00:45:10;;;;;;;9.23;6.55;;;;;;;;;;5044191;28;20182;-79
2022/01/19 00:47:36;;;;;;;8.90;6.85;;;;;;;;;;5041781;28;20222;-79
2022/01/19 00:50:04;;;;;;;10.18;7.65;;;;;;;;;;5044203;28;20186;-79
2022/01/19 00:52:30;;;;;;;15.05;8.43;;;;;;;;;;5042232;28;20182;-78
2022/01/19 00:54:55;;;;;;;14.30;7.57;;;;;;;;;;5042527;28;20178;-78
2022/01/19 00:57:21;;;;;;;10.80;7.13;;;;;;;;;;5042918;28;20173;-78
2022/01/19 00:59:47;;;;;;;9.23;7.85;;;;;;;;;;5042209;28;20193;-78
2022/01/19 01:02:13;;;;;;;9.15;6.93;;;;;;;;;;5041805;28;20647;-78
2022/01/19 01:04:39;;;;;;;9.25;6.40;;;;;;;;;;5043487;28;20193;-78
2022/01/19 01:07:05;;;;;;;10.30;7.57;;;;;;;;;;5042121;28;20213;-78
2022/01/19 01:09:31;;;;;;;9.35;6.78;;;;;;;;;;5042787;28;20208;-78
2022/01/19 01:12:08;;;;;;;11.00;6.78;;;;;;;;;;5042926;28;20170;-78
2022/01/19 01:20:05;;;;;;;10.98;7.60;;;;;;;;;;5043528;28;20217;-78
2022/01/19 01:22:31;;;;;;;10.30;8.02;;;;;;;;;;5041134;28;20225;-78
2022/01/19 01:24:57;;;;;;;9.07;7.03;;;;;;;;;;5041879;28;20190;-78
2022/01/19 01:27:23;;;;;;;12.93;6.82;;;;;;;;;;5042430;28;20692;-78
2022/01/19 01:29:49;;;;;;;12.65;6.80;;;;;;;;;;5041664;28;20185;-79
2022/01/19 01:32:15;;;;;;;10.38;6.63;;;;;;;;;;5041542;28;20209;-79
2022/01/19 01:34:41;;;;;;;9.90;7.10;;;;;;;;;;5041623;28;20224;-79
2022/01/19 01:37:07;;;;;;;20.08;7.50;;;;;;;;;;5042437;28;20185;-79
2022/01/19 01:39:33;;;;;;;10.45;7.15;;;;;;;;;;5042131;28;20209;-79
2022/01/19 01:41:59;;;;;;;10.98;6.97;;;;;;;;;;5042916;28;20181;-79
2022/01/19 01:44:25;;;;;;;9.38;6.65;;;;;;;;;;5042979;28;20193;-78
2022/01/19 01:46:57;;;;;;;14.15;8.25;;;;;;;;;;5040279;28;20232;-78
2022/01/19 01:54:59;;;;;;;10.32;8.68;;;;;;;;;;5002606;28;20190;-78
2022/01/19 01:57:25;;;;;;;13.63;10.00;;;;;;;;;;5002035;28;20191;-78
2022/01/19 01:59:51;;;;;;;12.30;9.68;;;;;;;;;;5003256;28;20187;-78
2022/01/19 02:02:17;;;;;;;12.00;10.15;;;;;;;;;;5001980;28;20187;-78
2022/01/19 02:04:43;;;;;;;15.63;10.07;;;;;;;;;;5003600;28;20202;-78
2022/01/19 02:09:40;;;;;;;14.75;10.27;;;;;;;;;;5001757;28;20171;-78
2022/01/19 02:23:23;;;;;;;14.93;9.80;;;;;;;;;;5001339;28;20273;-78
2022/01/19 02:25:54;;;;;;;14.13;10.20;;;;;;;;;;4983499;28;20182;-78
2022/01/19 02:36:53;;;;;;;13.88;9.65;;;;;;;;;;4980701;28;20183;-78
2022/01/19 02:42:09;;;;;;;13.82;9.73;;;;;;;;;;4985239;28;20266;-77
2022/01/19 02:49:42;;;;;;;18.13;12.05;;;;;;;;;;4984623;28;20696;-77
2022/01/19 02:52:09;;;;;;;20.90;11.23;;;;;;;;;;4968230;28;20198;-77
2022/01/19 02:54:35;;;;;;;21.58;12.20;;;;;;;;;;4965636;28;20247;-77
2022/01/19 02:57:02;;;;;;;14.98;11.75;;;;;;;;;;4968886;28;20256;-77
2022/01/19 02:59:43;;;;;;;18.73;11.93;;;;;;;;;;4975816;28;20184;-77
2022/01/19 03:10:24;;;;;;;18.33;11.20;;;;;;;;;;4984526;28;20214;-77
2022/01/19 03:12:50;;;;;;;17.27;11.65;;;;;;;;;;4992424;28;21384;-77
2022/01/19 03:15:16;;;;;;;17.17;11.45;;;;;;;;;;5044728;28;20186;-77
2022/01/19 03:17:42;;;;;;;21.40;12.70;;;;;;;;;;5044591;28;20190;-77
2022/01/19 03:20:09;;;;;;;15.43;12.25;;;;;;;;;;5044318;28;20254;-77
2022/01/19 03:25:37;;;;;;;15.13;11.10;;;;;;;;;;5036051;28;20289;-77
2022/01/19 03:28:03;;;;;;;17.35;12.30;;;;;;;;;;5041229;28;20587;-77
2022/01/19 03:30:29;;;;;;;18.25;11.70;;;;;;;;;;5046846;28;20173;-77
2022/01/19 03:32:55;;;;;;;20.23;10.75;;;;;;;;;;5045245;28;20177;-77
2022/01/19 03:35:21;;;;;;;17.10;12.40;;;;;;;;;;5044647;28;20182;-77
2022/01/19 03:37:47;;;;;;;18.23;11.50;;;;;;;;;;5043458;28;20472;-77
2022/01/19 03:40:14;;;;;;;19.20;11.70;;;;;;;;;;5041937;28;20239;-77
2022/01/19 03:42:40;;;;;;;17.63;12.85;;;;;;;;;;5043519;28;20188;-77
2022/01/19 03:45:07;;;;;;;20.42;11.40;;;;;;;;;;5043203;28;20192;-77
2022/01/19 03:47:39;;;;;;;21.27;12.20;;;;;;;;;;5044629;28;20294;-77
2022/01/19 03:50:06;;;;;;;16.40;11.38;;;;;;;;;;5043774;28;20213;-77
2022/01/19 03:52:32;;;;;;;18.17;12.02;;;;;;;;;;5045302;28;20182;-77
2022/01/19 03:54:58;;;;;;;23.88;12.98;;;;;;;;;;5028617;28;20213;-77
2022/01/19 03:57:24;;;;;;;17.77;12.13;;;;;;;;;;5045851;28;20208;-77
2022/01/19 03:59:50;;;;;;;20.57;12.53;;;;;;;;;;5042243;28;20197;-77
2022/01/19 04:02:16;;;;;;;17.67;12.60;;;;;;;;;;5044521;28;20433;-77
2022/01/19 04:07:12;;;;;;;19.83;13.00;;;;;;;;;;5044659;28;20210;-77
2022/01/19 04:09:39;;;;;;;17.05;10.52;;;;;;;;;;5043334;28;20204;-77
2022/01/19 04:12:07;;;;;;;20.13;11.75;;;;;;;;;;5045304;28;20253;-77
2022/01/19 04:14:33;;;;;;;17.90;10.07;;;;;;;;;;5044551;28;20189;-77
2022/01/19 04:17:01;;;;;;;20.85;12.32;;;;;;;;;;5043687;28;20208;-77
2022/01/19 04:19:30;;;;;;;19.10;10.63;;;;;;;;;;5043239;28;20611;-78
2022/01/19 04:21:59;;;;;;;16.88;10.45;;;;;;;;;;5042874;28;20193;-78
2022/01/19 04:24:25;;;;;;;18.98;10.65;;;;;;;;;;5043634;28;20178;-78
2022/01/19 04:29:37;;;;;;;27.20;11.00;;;;;;;;;;5041840;28;20240;-77
2022/01/19 04:32:10;;;;;;;16.30;10.27;;;;;;;;;;5042657;28;20279;-77
2022/01/19 04:34:40;;;;;;;14.88;9.68;;;;;;;;;;5044143;28;20193;-77
2022/01/19 04:48:37;;;;;;;15.60;10.30;;;;;;;;;;5003352;28;20201;-77
2022/01/19 05:15:09;;;;;;;12.18;8.80;;;;;;;;;;4943226;29;20636;-77
2022/01/19 05:17:38;;;;;;;13.75;9.27;;;;;;;;;;4925270;29;20208;-77
2022/01/19 05:20:05;;;;;;;13.52;9.50;;;;;;;;;;4941345;29;20189;-77
2022/01/19 05:22:31;;;;;;;14.27;10.57;;;;;;;;;;4923618;29;20199;-77
2022/01/19 05:24:57;;;;;;;13.52;10.75;;;;;;;;;;4925091;29;20205;-77
2022/01/19 05:27:23;;;;;;;13.98;9.50;;;;;;;;;;4944072;29;20204;-77
2022/01/19 05:29:49;;;;;;;16.02;10.70;;;;;;;;;;4953580;28;20185;-77
2022/01/19 05:32:16;;;;;;;15.32;10.30;;;;;;;;;;5042490;28;20200;-77
2022/01/19 05:34:42;;;;;;;14.85;10.40;;;;;;;;;;5042633;28;20186;-77
2022/01/19 05:37:08;;;;;;;13.70;10.40;;;;;;;;;;5041288;28;20189;-77
2022/01/19 05:39:34;;;;;;;13.77;10.80;;;;;;;;;;5042155;28;20644;-77
2022/01/19 05:42:00;;;;;;;15.32;10.90;;;;;;;;;;5042907;28;20177;-77
2022/01/19 05:44:26;;;;;;;16.70;11.98;;;;;;;;;;5041362;28;20209;-77
2022/01/19 05:46:52;;;;;;;15.07;10.40;;;;;;;;;;5041020;28;20256;-77
2022/01/19 05:49:18;;;;;;;14.27;9.98;;;;;;;;;;5041003;28;20209;-77
2022/01/19 05:51:45;;;;;;;13.82;9.93;;;;;;;;;;5041608;28;20166;-77
2022/01/19 05:54:11;;;;;;;19.02;9.82;;;;;;;;;;5056589;28;20192;-77
2022/01/19 05:56:37;;;;;;;10.85;8.80;;;;;;;;;;5040444;28;20186;-77
2022/01/19 05:59:03;;;;;;;19.52;10.45;;;;;;;;;;5041788;28;20192;-77
2022/01/19 06:01:29;;;;;;;13.60;10.10;;;;;;;;;;5041445;28;20724;-77
2022/01/19 06:03:55;;;;;;;18.45;10.15;;;;;;;;;;5040492;28;20441;-77
2022/01/19 06:06:21;;;;;;;15.45;8.90;;;;;;;;;;5041799;28;20642;-77
2022/01/19 06:08:59;;;;;;;12.15;9.32;;;;;;;;;;5042867;28;20982;-77
2022/01/19 06:11:25;;;;;;;15.88;9.95;;;;;;;;;;5041779;28;20200;-77
2022/01/19 06:13:51;;;;;;;14.35;9.80;;;;;;;;;;5040827;28;20181;-77
2022/01/19 06:16:17;;;;;;;11.93;9.23;;;;;;;;;;5039930;28;20197;-77
2022/01/19 06:18:43;;;;;;;19.35;10.50;;;;;;;;;;5043052;28;20198;-77
2022/01/19 06:21:09;;;;;;;14.63;10.73;;;;;;;;;;5041998;28;20212;-77
2022/01/19 06:23:36;;;;;;;16.70;9.82;;;;;;;;;;5040834;28;20273;-77
2022/01/19 06:26:03;;;;;;;12.77;9.90;;;;;;;;;;5042094;28;20170;-77
2022/01/19 06:28:29;;;;;;;14.68;9.52;;;;;;;;;;5042813;28;20178;-77
2022/01/19 06:30:55;;;;;;;18.10;9.95;;;;;;;;;;5040515;28;20635;-77
2022/01/19 06:33:21;;;;;;;13.40;10.18;;;;;;;;;;5041675;28;20184;-77
2022/01/19 06:35:47;;;;;;;16.15;11.40;;;;;;;;;;5037335;28;20193;-77
2022/01/19 06:38:13;;;;;;;14.85;9.60;;;;;;;;;;5040854;28;20193;-77
2022/01/19 06:40:39;;;;;;;22.77;12.13;;;;;;;;;;5041011;28;20210;-77
2022/01/19 06:43:05;;;;;;;15.63;12.23;;;;;;;;;;5041852;28;20190;-77
2022/01/19 06:45:31;;;;;;;17.17;11.95;;;;;;;;;;5040863;28;20424;-77
2022/01/19 06:47:57;;;;;;;20.23;12.68;;;;;;;;;;5041297;28;20239;-77
2022/01/19 06:50:25;;;;;;;19.15;11.75;;;;;;;;;;5041155;28;20190;-77
2022/01/19 06:52:51;;;;;;;19.35;12.73;;;;;;;;;;5041611;28;20189;-77
2022/01/19 06:55:18;;;;;;;21.88;12.60;;;;;;;;;;5042291;28;20181;-77
2022/01/19 06:57:44;;;;;;;21.13;12.25;;;;;;;;;;5042134;28;20186;-76
2022/01/19 07:00:11;;;;;;;17.25;10.30;;;;;;;;;;5035238;28;20178;-77
2022/01/19 07:02:37;;;;;;;23.65;11.82;;;;;;;;;;5040659;28;20200;-77
2022/01/19 07:05:04;;;;;;;18.58;10.82;;;;;;;;;;5040475;28;20186;-77
2022/01/19 07:07:30;;;;;;;16.73;11.25;;;;;;;;;;5040527;28;20238;-77
2022/01/19 07:09:56;;;;;;;21.67;11.75;;;;;;;;;;5026317;28;20189;-77
2022/01/19 07:12:22;;;;;;;15.32;10.95;;;;;;;;;;5042078;28;20177;-77
2022/01/19 07:14:48;;;;;;;19.55;11.38;;;;;;;;;;5039663;28;20200;-76
2022/01/19 07:17:14;;;;;;;17.08;10.50;;;;;;;;;;5042729;28;20182;-77
2022/01/19 07:19:40;;;;;;;19.48;11.35;;;;;;;;;;5044468;28;20186;-77
2022/01/19 07:22:06;;;;;;;16.77;10.40;;;;;;;;;;5045070;28;20203;-77
2022/01/19 07:24:33;;;;;;;12.70;9.75;;;;;;;;;;5044129;28;20261;-77
2022/01/19 07:26:59;;;;;;;16.75;11.32;;;;;;;;;;5038695;28;20210;-77
2022/01/19 07:29:25;;;;;;;20.02;11.40;;;;;;;;;;5033499;28;20254;-77
2022/01/19 07:31:51;;;;;;;17.17;10.02;;;;;;;;;;5036539;28;20181;-77
2022/01/19 07:34:17;;;;;;;16.40;9.88;;;;;;;;;;5042668;28;20179;-77
2022/01/19 07:36:43;;;;;;;18.50;12.10;;;;;;;;;;5044950;28;20188;-77
2022/01/19 07:39:09;;;;;;;23.60;13.07;;;;;;;;;;5045713;28;20181;-77
2022/01/19 07:41:35;;;;;;;22.20;11.15;;;;;;;;;;5045427;28;20208;-77
2022/01/19 07:44:01;;;;;;;17.88;11.20;;;;;;;;;;5045371;28;20216;-76
2022/01/19 07:46:27;;;;;;;15.45;10.07;;;;;;;;;;5042581;28;20217;-76
2022/01/19 07:48:53;;;;;;;19.38;11.32;;;;;;;;;;5045594;28;20197;-77
2022/01/19 07:51:19;;;;;;;20.75;12.32;;;;;;;;;;5043661;28;20166;-76
2022/01/19 07:53:46;;;;;;;16.17;10.80;;;;;;;;;;5042637;28;20693;-76
2022/01/19 07:56:12;;;;;;;17.42;11.27;;;;;;;;;;5040855;28;20197;-76
2022/01/19 07:58:38;;;;;;;20.58;11.13;;;;;;;;;;5054687;28;20221;-78
2022/01/19 08:01:04;;;;;;;18.23;11.90;;;;;;;;;;5041839;28;20189;-78
2022/01/19 08:03:30;;;;;;;23.00;10.95;;;;;;;;;;5043810;28;20432;-78
2022/01/19 08:05:56;;;;;;;17.60;11.10;;;;;;;;;;5035875;28;20190;-78
2022/01/19 08:08:21;;;;;;;22.65;11.70;;;;;;;;;;5038120;28;20218;-78
2022/01/19 08:10:48;;;;;;;21.10;13.57;;;;;;;;;;5038727;28;20210;-78
2022/01/19 08:13:15;;;;;;;20.27;11.25;;;;;;;;;;5039287;28;20443;-77
2022/01/19 08:15:41;;;;;;;17.70;10.73;;;;;;;;;;5038377;28;20170;-77
2022/01/19 08:18:07;;;;;;;23.45;12.02;;;;;;;;;;5039135;28;20194;-78
2022/01/19 08:20:33;;;;;;;20.48;11.27;;;;;;;;;;5043135;28;20193;-77
2022/01/19 08:22:59;;;;;;;22.90;11.90;;;;;;;;;;5036508;28;20190;-77
2022/01/19 08:25:25;;;;;;;23.27;12.18;;;;;;;;;;5027867;28;20190;-77
2022/01/19 08:27:51;;;;;;;17.63;11.25;;;;;;;;;;5026644;28;20218;-77
2022/01/19 08:30:17;;;;;;;21.65;12.50;;;;;;;;;;5041647;28;20245;-78
2022/01/19 08:32:43;;;;;;;20.10;12.45;;;;;;;;;;5036556;28;20189;-77
2022/01/19 08:35:10;;;;;;;24.92;12.27;;;;;;;;;;5039592;28;20212;-77
2022/01/19 08:37:36;;;;;;;19.25;12.30;;;;;;;;;;5031683;28;20193;-77
2022/01/19 08:40:04;;;;;;;21.65;12.10;;;;;;;;;;5043289;28;20186;-77
2022/01/19 08:42:30;;;;;;;27.92;14.15;;;;;;;;;;5039700;28;20170;-77
2022/01/19 08:44:57;;;;;;;27.77;13.98;;;;;;;;;;5041526;28;20181;-78
2022/01/19 08:47:23;;;;;;;22.83;12.65;;;;;;;;;;5042744;28;20221;-78
2022/01/19 08:49:49;;;;;;;26.13;12.77;;;;;;;;;;5042637;28;20236;-78
2022/01/19 08:52:16;;;;;;;26.55;14.35;;;;;;;;;;5025855;28;20186;-78
2022/01/19 08:54:42;;;;;;;22.92;12.45;;;;;;;;;;5038666;28;20185;-78
2022/01/19 08:57:08;;;;;;;17.27;12.18;;;;;;;;;;5042646;28;20277;-78
2022/01/19 08:59:36;;;;;;;21.98;12.05;;;;;;;;;;5042129;28;20220;-78
2022/01/19 09:02:02;;;;;;;22.27;12.85;;;;;;;;;;5042490;28;20268;-78
2022/01/19 09:04:28;;;;;;;25.20;14.07;;;;;;;;;;5031425;28;20190;-78
2022/01/19 09:06:54;;;;;;;29.77;14.02;;;;;;;;;;5028335;28;20309;-77
2022/01/19 09:09:20;;;;;;;26.20;13.27;;;;;;;;;;5043430;28;20170;-78
2022/01/19 09:11:46;;;;;;;20.95;12.57;;;;;;;;;;5040568;28;20185;-78
2022/01/19 09:14:12;;;;;;;20.30;12.80;;;;;;;;;;5041374;28;20707;-78
2022/01/19 09:16:38;;;;;;;19.20;12.57;;;;;;;;;;5031828;28;20200;-78
2022/01/19 09:19:06;;;;;;;20.00;14.45;;;;;;;;;;5043058;28;20192;-78
2022/01/19 09:21:32;;;;;;;20.02;13.32;;;;;;;;;;5042627;28;20711;-78
2022/01/19 09:23:58;;;;;;;20.23;12.85;;;;;;;;;;5041854;28;20215;-78
2022/01/19 09:26:24;;;;;;;23.48;12.35;;;;;;;;;;5041862;28;20212;-78
2022/01/19 09:28:50;;;;;;;21.33;12.95;;;;;;;;;;5042588;28;20181;-78
2022/01/19 09:31:18;;;;;;;24.63;14.48;;;;;;;;;;5043610;28;20205;-78
2022/01/19 09:33:52;;;;;;;24.70;14.77;;;;;;;;;;5043267;28;20169;-78
2022/01/19 09:36:33;;;;;;;18.77;12.57;;;;;;;;;;5040567;28;20173;-78
2022/01/19 09:38:59;;;;;;;23.23;13.38;;;;;;;;;;5042256;28;20269;-77
2022/01/19 09:41:26;;;;;;;26.58;14.27;;;;;;;;;;5041687;28;20240;-77
2022/01/19 09:43:52;;;;;;;26.30;13.25;;;;;;;;;;5041400;28;20194;-78
2022/01/19 09:46:18;;;;;;;30.27;13.68;;;;;;;;;;5040379;28;20225;-78
2022/01/19 09:48:44;;;;;;;26.50;13.45;;;;;;;;;;5041712;28;20181;-78
2022/01/19 09:51:12;;;;;;;30.02;14.15;;;;;;;;;;5041514;28;20176;-77
2022/01/19 09:53:38;;;;;;;21.30;12.75;;;;;;;;;;5040373;28;20201;-78
2022/01/19 09:56:04;;;;;;;27.10;13.57;;;;;;;;;;5039938;28;20235;-78
2022/01/19 09:58:30;;;;;;;21.05;14.77;;;;;;;;;;5042652;28;20499;-78
2022/01/19 10:00:57;;;;;;;25.42;13.77;;;;;;;;;;5040653;28;20186;-78
2022/01/19 10:03:28;;;;;;;23.65;15.27;;;;;;;;;;5041933;28;20166;-78
2022/01/19 10:06:13;;;;;;;25.33;14.85;;;;;;;;;;5031719;28;20193;-78
2022/01/19 10:08:39;;;;;;;20.73;14.63;;;;;;;;;;5041264;28;20188;-78
2022/01/19 10:11:05;;;;;;;29.05;15.63;;;;;;;;;;5039612;28;20182;-78
2022/01/19 10:19:19;;;;;;;27.67;16.50;;;;;;;;;;5036767;28;20613;-78
2022/01/19 10:22:00;;;;;;;22.83;14.05;;;;;;;;;;5029013;28;20185;-78
2022/01/19 10:24:41;;;;;;;25.85;15.73;;;;;;;;;;5035393;28;20192;-77
2022/01/19 10:27:18;;;;;;;27.90;15.68;;;;;;;;;;5052331;28;20205;-77
2022/01/19 10:29:44;;;;;;;27.95;16.83;;;;;;;;;;5038918;28;20211;-77
2022/01/19 10:32:10;;;;;;;27.55;16.50;;;;;;;;;;5040289;28;20577;-78
2022/01/19 10:34:36;;;;;;;25.25;17.45;;;;;;;;;;5039321;28;20190;-77
2022/01/19 10:37:05;;;;;;;25.77;16.48;;;;;;;;;;5045659;28;20181;-79
2022/01/19 10:39:43;;;;;;;26.25;18.75;;;;;;;;;;5037814;28;20185;-79
2022/01/19 10:42:11;;;;;;;61.08;25.20;;;;;;;;;;5039703;28;20182;-81
2022/01/19 10:44:42;;;;;;;34.13;19.20;;;;;;;;;;5038495;28;20200;-78
2022/01/19 10:47:10;;;;;;;35.50;19.83;;;;;;;;;;5037800;28;20222;-80
2022/01/19 10:49:53;;;;;;;29.15;18.58;;;;;;;;;;5040900;28;20892;-81
2022/01/19 10:52:45;;;;;;;30.98;18.80;;;;;;;;;;5043022;28;20654;-80
2022/01/19 10:55:13;;;;;;;30.33;18.15;;;;;;;;;;5038207;28;20197;-80
2022/01/19 10:57:40;;;;;;;33.88;19.27;;;;;;;;;;5041880;28;20225;-81
2022/01/19 11:00:11;;;;;;;32.45;19.10;;;;;;;;;;5041248;28;20182;-82
2022/01/19 11:02:37;;;;;;;31.25;18.48;;;;;;;;;;5044702;28;20185;-80
2022/01/19 11:05:03;;;;;;;32.75;18.27;;;;;;;;;;5039811;28;20213;-81
2022/01/19 11:07:29;;;;;;;36.10;18.38;;;;;;;;;;5043257;28;20288;-81
2022/01/19 11:10:07;;;;;;;33.00;17.52;;;;;;;;;;5042501;28;20787;-80
2022/01/19 11:12:40;;;;;;;30.42;18.58;;;;;;;;;;5041679;28;20169;-80
2022/01/19 11:15:08;;;;;;;31.02;18.95;;;;;;;;;;5042523;28;20174;-81
2022/01/19 11:17:34;;;;;;;30.80;17.48;;;;;;;;;;5040233;28;20287;-80
2022/01/19 11:20:11;;;;;;;33.83;21.30;;;;;;;;;;5044381;28;20204;-83
2022/01/19 11:23:04;;;;;;;32.28;17.88;;;;;;;;;;5042267;28;20272;-82
2022/01/19 11:25:35;;;;;;;30.98;19.83;;;;;;;;;;5019125;28;20191;-81
2022/01/19 11:28:01;;;;;;;33.78;19.58;;;;;;;;;;5004523;28;20215;-81
2022/01/19 11:30:29;;;;;;;31.55;19.25;;;;;;;;;;5003613;28;20737;-81
2022/01/19 11:33:10;;;;;;;29.70;19.27;;;;;;;;;;5004996;28;20194;-79
2022/01/19 11:35:37;;;;;;;32.83;17.10;;;;;;;;;;5006546;28;20209;-78
2022/01/19 11:38:23;;;;;;;30.00;17.60;;;;;;;;;;5021609;28;20190;-78
2022/01/19 11:40:49;;;;;;;28.55;16.65;;;;;;;;;;5003714;28;20197;-78
2022/01/19 11:43:19;;;;;;;32.72;19.30;;;;;;;;;;5003635;28;20198;-78
2022/01/19 11:45:45;;;;;;;30.15;16.80;;;;;;;;;;5004929;28;20198;-78
2022/01/19 11:48:19;;;;;;;26.00;15.90;;;;;;;;;;5021995;28;20229;-78
2022/01/19 11:50:45;;;;;;;25.08;15.98;;;;;;;;;;5002819;28;20193;-78
2022/01/19 11:53:12;;;;;;;25.77;16.60;;;;;;;;;;5007531;28;20693;-78
2022/01/19 11:55:39;;;;;;;29.58;16.60;;;;;;;;;;5019435;28;20199;-77
2022/01/19 11:58:23;;;;;;;28.77;16.23;;;;;;;;;;5024858;28;20190;-77
2022/01/19 12:00:51;;;;;;;25.70;15.48;;;;;;;;;;5006503;28;20393;-78
2022/01/19 12:03:18;;;;;;;20.92;13.90;;;;;;;;;;5038533;28;20184;-78
2022/01/19 12:05:44;;;;;;;25.63;15.70;;;;;;;;;;5042737;28;20276;-78
2022/01/19 12:08:27;;;;;;;25.42;13.63;;;;;;;;;;5042144;28;20244;-77
2022/01/19 12:10:56;;;;;;;22.35;14.77;;;;;;;;;;5043305;28;20189;-78
2022/01/19 12:16:07;;;;;;;19.85;13.00;;;;;;;;;;5043431;28;20198;-78
2022/01/19 12:18:36;;;;;;;19.52;12.80;;;;;;;;;;5055848;28;20177;-78
2022/01/19 12:21:02;;;;;;;16.05;11.70;;;;;;;;;;5060178;28;20174;-76
2022/01/19 12:23:29;;;;;;;18.13;12.43;;;;;;;;;;5040023;28;20232;-78
2022/01/19 12:25:56;;;;;;;17.83;12.13;;;;;;;;;;5035603;28;20189;-77
2022/01/19 12:28:39;;;;;;;17.00;11.10;;;;;;;;;;5042417;28;20244;-77
2022/01/19 12:31:23;;;;;;;17.63;11.32;;;;;;;;;;5042899;28;20428;-77
2022/01/19 12:34:06;;;;;;;17.88;10.60;;;;;;;;;;5042158;28;20177;-77
2022/01/19 12:36:42;;;;;;;17.40;10.93;;;;;;;;;;5036070;28;20190;-78
2022/01/19 12:39:29;;;;;;;17.77;10.05;;;;;;;;;;5042940;28;20177;-79
2022/01/19 12:42:04;;;;;;;16.05;9.68;;;;;;;;;;5044050;28;20201;-77
2022/01/19 12:44:36;;;;;;;14.77;10.70;;;;;;;;;;5042011;28;20244;-78
2022/01/19 12:47:03;;;;;;;17.38;9.75;;;;;;;;;;5044791;28;20255;-75
2022/01/19 12:49:30;;;;;;;14.23;9.80;;;;;;;;;;5028246;28;20182;-77
2022/01/19 12:51:57;;;;;;;18.65;9.95;;;;;;;;;;5026662;28;20276;-77
2022/01/19 12:54:27;;;;;;;17.58;11.32;;;;;;;;;;5044584;28;20208;-78
2022/01/19 12:56:54;;;;;;;15.77;9.45;;;;;;;;;;5046352;28;20197;-77
2022/01/19 12:59:20;;;;;;;15.70;10.35;;;;;;;;;;5044227;28;20209;-77
2022/01/19 13:01:46;;;;;;;18.33;10.60;;;;;;;;;;5043743;28;20555;-78
2022/01/19 13:04:23;;;;;;;14.95;10.00;;;;;;;;;;5040019;28;20182;-78
2022/01/19 13:06:49;;;;;;;17.85;10.80;;;;;;;;;;5023979;28;20201;-77
2022/01/19 13:09:25;;;;;;;17.33;9.90;;;;;;;;;;5024497;28;20317;-79
2022/01/19 13:11:54;;;;;;;78.78;31.90;;;;;;;;;;5025897;28;20232;-82
2022/01/19 13:14:23;;;;;;;17.92;11.60;;;;;;;;;;5024476;28;20182;-82
2022/01/19 13:16:49;;;;;;;26.83;15.43;;;;;;;;;;5045147;28;20208;-80
2022/01/19 13:19:17;;;;;;;90.50;33.17;;;;;;;;;;5025383;28;20202;-81
2022/01/19 13:21:44;;;;;;;16.95;11.18;;;;;;;;;;5025283;28;20277;-82
2022/01/19 13:24:30;;;;;;;15.68;10.95;;;;;;;;;;5042064;28;20249;-81
2022/01/19 13:26:59;;;;;;;15.15;10.32;;;;;;;;;;5028201;28;20228;-80
2022/01/19 13:29:27;;;;;;;11.25;9.35;;;;;;;;;;5024216;28;20181;-79
2022/01/19 13:31:56;;;;;;;18.77;11.02;;;;;;;;;;5024126;28;20190;-79
2022/01/19 13:34:22;;;;;;;18.20;11.77;;;;;;;;;;5043168;28;20199;-81
2022/01/19 13:36:52;;;;;;;14.02;9.88;;;;;;;;;;5025607;28;20190;-80
2022/01/19 13:39:20;;;;;;;15.77;10.60;;;;;;;;;;5043059;28;20246;-80
2022/01/19 13:41:46;;;;;;;30.05;10.65;;;;;;;;;;5044935;28;20189;-80
2022/01/19 13:44:15;;;;;;;17.98;11.75;;;;;;;;;;5015142;28;20205;-81
2022/01/19 13:46:42;;;;;;;17.50;11.57;;;;;;;;;;5007538;28;20222;-81
2022/01/19 13:49:08;;;;;;;18.27;11.65;;;;;;;;;;5002107;28;20687;-78
2022/01/19 13:51:37;;;;;;;20.85;13.45;;;;;;;;;;5021849;28;21393;-77
2022/01/19 13:54:05;;;;;;;31.08;16.08;;;;;;;;;;5019936;28;20194;-78
2022/01/19 13:56:32;;;;;;;21.67;13.00;;;;;;;;;;5003239;28;20258;-78
2022/01/19 13:59:03;;;;;;;19.67;13.80;;;;;;;;;;4993397;28;20186;-82
2022/01/19 14:01:40;;;;;;;21.00;12.32;;;;;;;;;;5000916;28;20187;-82
2022/01/19 14:04:07;;;;;;;18.20;12.70;;;;;;;;;;5000655;28;20182;-81
2022/01/19 14:06:41;;;;;;;14.55;11.23;;;;;;;;;;5008640;28;20195;-82
2022/01/19 14:09:23;;;;;;;24.80;14.25;;;;;;;;;;5021893;28;20175;-82
2022/01/19 14:12:00;;;;;;;19.33;10.90;;;;;;;;;;5018998;28;20186;-79
2022/01/19 14:14:37;;;;;;;21.65;12.88;;;;;;;;;;5001449;28;20182;-81
2022/01/19 14:17:04;;;;;;;19.33;13.15;;;;;;;;;;5000109;28;20182;-81
2022/01/19 14:19:31;;;;;;;17.38;11.77;;;;;;;;;;5018072;28;20837;-79
2022/01/19 14:22:03;;;;;;;20.17;12.23;;;;;;;;;;5019644;28;20191;-80
2022/01/19 14:24:42;;;;;;;17.95;12.48;;;;;;;;;;5001153;28;20189;-81
2022/01/19 14:27:12;;;;;;;19.20;12.38;;;;;;;;;;5007060;28;20209;-81
2022/01/19 14:29:58;;;;;;;16.65;11.65;;;;;;;;;;5003790;28;20208;-80
2022/01/19 14:32:43;;;;;;;16.70;11.82;;;;;;;;;;5021814;28;20241;-81
2022/01/19 14:35:23;;;;;;;16.70;11.30;;;;;;;;;;5005068;28;20192;-84
2022/01/19 14:38:01;;;;;;;18.42;10.02;;;;;;;;;;5005474;28;20216;-81
2022/01/19 14:40:28;;;;;;;15.95;9.95;;;;;;;;;;5002815;28;20242;-81
2022/01/19 14:42:54;;;;;;;17.30;10.15;;;;;;;;;;5004878;28;20659;-80
2022/01/19 14:45:24;;;;;;;15.80;9.70;;;;;;;;;;5022889;28;20182;-80
2022/01/19 14:47:54;;;;;;;15.80;10.68;;;;;;;;;;4980292;28;1361433;-78
2022/01/19 14:50:40;;;;;;;17.17;9.95;;;;;;;;;;5038763;28;20178;-81
2022/01/19 14:53:06;;;;;;;14.93;9.75;;;;;;;;;;5045274;28;20198;-80
2022/01/19 14:55:34;;;;;;;14.27;9.43;;;;;;;;;;5044402;28;20564;-80
2022/01/19 14:58:00;;;;;;;14.70;10.88;;;;;;;;;;5044038;28;20282;-80
2022/01/19 15:00:28;;;;;;;14.95;9.10;;;;;;;;;;5045968;28;20185;-79
2022/01/19 15:02:59;;;;;;;15.57;10.38;;;;;;;;;;5044915;28;20272;-82
2022/01/19 15:05:26;;;;;;;15.63;10.40;;;;;;;;;;5045252;28;20547;-81
2022/01/19 15:07:52;;;;;;;15.52;10.48;;;;;;;;;;5043858;28;20260;-81
2022/01/19 15:10:19;;;;;;;18.33;10.20;;;;;;;;;;5042513;28;20640;-81
2022/01/19 15:12:46;;;;;;;17.05;10.25;;;;;;;;;;5046011;28;20170;-79
2022/01/19 15:15:12;;;;;;;21.98;10.93;;;;;;;;;;5044447;28;20231;-81
2022/01/19 15:17:38;;;;;;;13.00;9.15;;;;;;;;;;5043556;28;20217;-81
2022/01/19 15:20:08;;;;;;;16.02;10.50;;;;;;;;;;5044077;28;20588;-81
2022/01/19 15:22:34;;;;;;;15.10;9.88;;;;;;;;;;5045068;28;20185;-83
2022/01/19 15:25:01;;;;;;;15.48;9.40;;;;;;;;;;5043805;28;20182;-81
2022/01/19 15:27:27;;;;;;;14.48;9.48;;;;;;;;;;5045479;28;20200;-81
2022/01/19 15:29:53;;;;;;;15.55;9.90;;;;;;;;;;5039937;28;20182;-80
2022/01/19 15:32:19;;;;;;;14.60;9.82;;;;;;;;;;5040246;28;20182;-81
2022/01/19 15:34:45;;;;;;;13.77;9.30;;;;;;;;;;5043291;28;20181;-82
2022/01/19 15:37:12;;;;;;;14.50;9.85;;;;;;;;;;5044813;28;20249;-82
2022/01/19 15:39:40;;;;;;;14.57;10.02;;;;;;;;;;5043650;28;20534;-82
2022/01/19 15:42:06;;;;;;;15.95;9.68;;;;;;;;;;5044005;28;20173;-83
2022/01/19 15:44:32;;;;;;;12.77;9.80;;;;;;;;;;5040587;28;20189;-83
2022/01/19 15:46:58;;;;;;;13.40;9.45;;;;;;;;;;5043120;28;20226;-83
2022/01/19 15:49:24;;;;;;;13.15;9.18;;;;;;;;;;5043644;28;20170;-83
2022/01/19 15:51:50;;;;;;;16.43;9.87;;;;;;;;;;5043883;28;20528;-83
2022/01/19 15:54:17;;;;;;;13.57;10.25;;;;;;;;;;5045147;28;20427;-82
2022/01/19 15:56:44;;;;;;;17.30;11.13;;;;;;;;;;5043706;28;20187;-82
2022/01/19 15:59:11;;;;;;;14.30;10.27;;;;;;;;;;5043444;28;20182;-81
2022/01/19 16:01:37;;;;;;;14.85;10.60;;;;;;;;;;5043981;28;20192;-82
2022/01/19 16:04:03;;;;;;;20.17;11.43;;;;;;;;;;5045208;28;20208;-82
2022/01/19 16:06:29;;;;;;;14.02;9.25;;;;;;;;;;5040403;28;20221;-82
2022/01/19 16:08:55;;;;;;;15.93;9.82;;;;;;;;;;5036823;28;20182;-82